createdAt,value
2023-01-13T00:54:25.745Z,30.97
2023-01-13T00:55:26.711Z,30.18
2023-01-13T00:56:39.615Z,30.07
2023-01-13T00:57:26.685Z,29.97
2023-01-13T00:58:26.685Z,29.92
2023-01-13T00:59:26.666Z,29.87
2023-01-13T01:00:26.663Z,29.84
2023-01-13T01:01:26.785Z,29.81
2023-01-13T01:02:26.684Z,29.79
2023-01-13T01:03:26.635Z,29.79
2023-01-13T01:04:26.621Z,29.75
2023-01-13T01:05:26.613Z,29.76
2023-01-13T01:06:26.618Z,29.75
2023-01-13T01:07:26.597Z,29.73
2023-01-13T01:08:26.589Z,29.72
2023-01-13T01:09:26.572Z,29.72
2023-01-13T01:10:26.587Z,29.72
2023-01-13T01:11:26.586Z,29.71
2023-01-13T01:12:26.560Z,29.70
2023-01-13T01:13:26.547Z,29.70
2023-01-13T01:14:26.532Z,29.71
2023-01-13T01:15:26.525Z,29.71
2023-01-13T01:16:26.619Z,29.68
2023-01-13T01:17:26.506Z,29.67
2023-01-13T01:18:26.512Z,29.68
2023-01-13T01:19:26.484Z,29.68
2023-01-13T01:20:26.491Z,29.68
2023-01-13T01:21:26.477Z,29.67
2023-01-13T01:22:26.516Z,29.68
2023-01-13T01:23:26.456Z,29.67
2023-01-13T01:24:26.455Z,29.67
2023-01-13T01:25:26.431Z,29.66
2023-01-13T01:26:26.465Z,29.65
2023-01-13T01:27:26.412Z,29.64
2023-01-13T01:28:26.408Z,29.64
2023-01-13T01:29:26.409Z,29.65
2023-01-13T01:30:26.393Z,29.64
2023-01-13T01:31:26.436Z,29.65
2023-01-13T01:32:26.369Z,29.64
2023-01-13T01:33:26.363Z,29.63
2023-01-13T01:34:26.354Z,29.66
2023-01-13T01:35:26.341Z,29.61
2023-01-13T01:36:26.337Z,29.65
2023-01-13T01:37:26.328Z,29.64
2023-01-13T01:38:26.326Z,29.65
2023-01-13T01:39:26.323Z,29.65
2023-01-13T01:40:26.302Z,29.62
2023-01-13T01:41:26.293Z,29.61
2023-01-13T01:42:26.308Z,29.66
2023-01-13T01:43:26.280Z,29.60
2023-01-13T01:44:26.272Z,29.60
2023-01-13T01:45:26.258Z,29.59
2023-01-13T01:46:26.292Z,29.59
2023-01-13T01:47:26.236Z,29.60
2023-01-13T01:48:26.227Z,29.61
2023-01-13T01:49:26.223Z,29.61
2023-01-13T01:50:26.223Z,29.60
2023-01-13T01:51:26.206Z,29.59
2023-01-13T01:52:26.213Z,29.58
2023-01-13T01:53:26.181Z,29.56
2023-01-13T01:54:26.173Z,29.56
2023-01-13T01:55:26.177Z,29.56
2023-01-13T01:56:26.158Z,29.58
2023-01-13T01:57:26.147Z,29.55
2023-01-13T01:58:26.164Z,29.58
2023-01-13T01:59:26.128Z,29.56
2023-01-13T02:00:26.117Z,29.51
2023-01-13T02:01:26.229Z,29.54
2023-01-13T02:02:26.210Z,29.51
2023-01-13T02:03:26.103Z,29.54
2023-01-13T02:04:26.084Z,29.55
2023-01-13T02:05:26.073Z,29.55
2023-01-13T02:06:26.107Z,29.54
2023-01-13T02:07:26.056Z,29.55
2023-01-13T02:08:26.048Z,29.53
2023-01-13T02:09:26.033Z,29.56
2023-01-13T02:10:26.031Z,29.57
2023-01-13T02:11:26.019Z,29.54
2023-01-13T02:12:26.016Z,29.54
2023-01-13T02:13:25.999Z,29.53
2023-01-13T02:14:26.010Z,29.54
2023-01-13T02:15:25.980Z,29.52
2023-01-13T02:16:26.050Z,29.54
2023-01-13T02:17:25.969Z,29.53
2023-01-13T02:18:25.962Z,29.53
2023-01-13T02:19:25.946Z,29.54
2023-01-13T02:20:25.928Z,29.51
2023-01-13T02:21:25.925Z,29.50
2023-01-13T02:22:25.911Z,29.51
2023-01-13T02:23:25.909Z,29.50
2023-01-13T02:24:25.897Z,29.53
2023-01-13T02:25:25.897Z,29.52
2023-01-13T02:26:25.878Z,29.49
2023-01-13T02:27:25.872Z,29.49
2023-01-13T02:28:25.868Z,29.51
2023-01-13T02:29:25.847Z,29.49
2023-01-13T02:30:25.861Z,29.48
2023-01-13T02:31:25.951Z,29.47
2023-01-13T02:32:25.825Z,29.46
2023-01-13T02:33:25.816Z,29.47
2023-01-13T02:34:25.810Z,29.46
2023-01-13T02:35:25.798Z,29.45
2023-01-13T02:36:25.794Z,29.48
2023-01-13T02:37:25.772Z,29.48
2023-01-13T02:38:25.785Z,29.48
2023-01-13T02:39:25.763Z,29.46
2023-01-13T02:40:25.749Z,29.49
2023-01-13T02:41:25.749Z,29.49
2023-01-13T02:42:25.731Z,29.51
2023-01-13T02:43:25.724Z,29.48
2023-01-13T02:44:25.710Z,29.48
2023-01-13T02:45:25.775Z,29.48
2023-01-13T02:46:25.716Z,29.46
2023-01-13T02:47:25.695Z,29.45
2023-01-13T02:48:25.678Z,29.46
2023-01-13T02:49:25.671Z,29.44
2023-01-13T02:50:25.663Z,29.46
2023-01-13T02:51:25.687Z,29.44
2023-01-13T02:52:25.643Z,29.43
2023-01-13T02:53:25.632Z,29.41
2023-01-13T02:54:25.622Z,29.42
2023-01-13T02:55:25.618Z,29.42
2023-01-13T02:56:25.608Z,29.41
2023-01-13T02:57:25.604Z,29.43
2023-01-13T02:58:25.591Z,29.43
2023-01-13T02:59:25.578Z,29.41
2023-01-13T03:00:25.641Z,29.42
2023-01-13T03:01:25.694Z,29.42
2023-01-13T03:02:25.615Z,29.39
2023-01-13T03:03:25.548Z,29.39
2023-01-13T03:04:25.541Z,29.40
2023-01-13T03:05:25.528Z,29.43
2023-01-13T03:06:25.520Z,29.41
2023-01-13T03:07:25.515Z,29.41
2023-01-13T03:08:25.512Z,29.41
2023-01-13T03:09:25.496Z,29.35
2023-01-13T03:10:25.531Z,29.38
2023-01-13T03:11:25.489Z,29.37
2023-01-13T03:12:25.475Z,29.42
2023-01-13T03:13:25.460Z,29.39
2023-01-13T03:14:25.456Z,29.39
2023-01-13T03:15:25.446Z,29.37
2023-01-13T03:16:25.487Z,29.37
2023-01-13T03:17:25.429Z,29.39
2023-01-13T03:18:25.484Z,29.36
2023-01-13T03:19:25.406Z,29.39
2023-01-13T03:20:25.400Z,29.39
2023-01-13T03:21:25.397Z,29.39
2023-01-13T03:22:25.381Z,29.38
2023-01-13T03:23:25.374Z,29.36
2023-01-13T03:24:25.365Z,29.36
2023-01-13T03:25:25.364Z,29.36
2023-01-13T04:18:24.876Z,29.31
2023-01-13T04:47:24.612Z,29.31
2023-01-13T05:32:24.200Z,29.32
2023-01-13T06:30:23.701Z,29.65
2023-01-13T06:42:22.580Z,29.83
2023-01-13T06:58:23.468Z,29.95
2023-01-13T06:59:23.402Z,29.92
2023-01-13T07:15:23.517Z,31.53
2023-01-13T07:45:22.988Z,31.92
2023-01-13T07:48:22.976Z,31.87
2023-01-13T07:51:22.925Z,31.84
2023-01-13T07:53:22.984Z,31.79
2023-01-13T07:56:22.979Z,31.67
2023-01-13T07:59:22.982Z,31.64
2023-01-13T08:10:23.162Z,31.46
2023-01-13T08:29:22.621Z,31.21
2023-01-13T08:39:22.600Z,31.09
2023-01-13T08:40:21.484Z,31.09
2023-01-13T08:41:22.468Z,31.06
2023-01-13T08:44:22.518Z,31.05
2023-01-13T08:48:22.603Z,31.02
2023-01-13T08:50:22.412Z,31.00
2023-01-13T08:53:22.537Z,30.97
2023-01-13T09:11:22.550Z,30.88
2023-01-13T09:30:22.051Z,30.83
2023-01-13T09:37:22.054Z,30.79
2023-01-13T09:42:22.135Z,30.73
2023-01-13T09:47:22.068Z,30.77
2023-01-13T09:49:21.880Z,30.72
2023-01-13T09:51:22.061Z,30.70
2023-01-13T09:57:22.066Z,30.69
2023-01-13T09:58:21.896Z,30.69
2023-01-13T10:13:21.655Z,30.58
2023-01-13T10:24:21.522Z,30.61
2023-01-13T10:26:21.611Z,30.59
2023-01-13T10:28:21.486Z,30.58
2023-01-13T10:29:21.489Z,30.56
2023-01-13T10:30:21.623Z,30.59
2023-01-13T10:31:21.545Z,30.58
2023-01-13T10:32:21.443Z,30.60
2023-01-13T10:33:21.454Z,30.61
2023-01-13T10:34:21.434Z,30.61
2023-01-13T10:35:21.543Z,30.65
2023-01-13T10:36:21.571Z,30.69
2023-01-13T10:37:21.556Z,30.71
2023-01-13T10:40:21.375Z,30.76
2023-01-13T10:41:21.371Z,30.83
2023-01-13T10:42:21.555Z,30.92
2023-01-13T10:43:21.345Z,31.13
2023-01-13T10:44:21.348Z,31.07
2023-01-13T10:45:21.351Z,31.18
2023-01-13T10:47:21.565Z,31.35
2023-01-13T10:48:21.334Z,31.37
2023-01-13T10:50:21.302Z,31.43
2023-01-13T10:51:21.299Z,31.43
2023-01-13T10:54:21.305Z,31.62
2023-01-13T10:56:21.585Z,31.71
2023-01-13T10:57:21.238Z,31.74
2023-01-13T11:00:21.487Z,31.81
2023-01-13T11:01:21.727Z,31.85
2023-01-13T11:03:21.205Z,31.89
2023-01-13T11:05:21.180Z,31.93
2023-01-13T11:06:21.170Z,31.94
2023-01-13T11:07:21.137Z,31.97
2023-01-13T11:11:36.722Z,32.13
2023-01-13T11:14:21.119Z,32.19
2023-01-13T11:15:21.124Z,32.18
2023-01-13T11:16:21.234Z,32.24
2023-01-13T11:17:21.084Z,32.36
2023-01-13T11:19:21.254Z,32.39
2023-01-13T11:20:21.062Z,32.36
2023-01-13T11:21:21.062Z,32.39
2023-01-13T11:22:21.100Z,32.36
2023-01-13T11:23:21.092Z,32.38
2023-01-13T11:24:20.993Z,32.35
2023-01-13T11:25:20.976Z,32.27
2023-01-13T11:26:20.976Z,32.17
2023-01-13T11:27:20.975Z,32.16
2023-01-13T11:28:21.075Z,32.15
2023-01-13T11:29:20.952Z,32.15
2023-01-13T11:30:20.948Z,32.15
2023-01-13T11:31:20.998Z,32.14
2023-01-13T11:32:20.919Z,32.12
2023-01-13T11:33:20.913Z,32.10
2023-01-13T11:34:20.937Z,32.11
2023-01-13T11:35:20.914Z,32.11
2023-01-13T11:36:20.964Z,32.09
2023-01-13T11:38:20.856Z,32.08
2023-01-13T11:39:21.083Z,32.08
2023-01-13T11:40:20.847Z,32.08
2023-01-13T11:41:21.089Z,32.05
2023-01-13T11:42:21.088Z,32.04
2023-01-13T11:43:20.837Z,32.01
2023-01-13T11:44:20.804Z,32.02
2023-01-13T11:45:20.795Z,32.02
2023-01-13T11:46:20.823Z,32.05
2023-01-13T11:47:21.139Z,32.00
2023-01-13T11:48:20.768Z,32.00
2023-01-13T11:49:22.401Z,32.00
2023-01-13T11:50:20.785Z,30.31
2023-01-13T11:51:20.743Z,29.42
2023-01-13T11:52:21.092Z,29.04
2023-01-13T11:53:20.720Z,27.97
2023-01-13T11:54:21.088Z,27.69
2023-01-13T11:55:22.652Z,28.11
2023-01-13T11:56:20.721Z,28.86
2023-01-13T11:57:20.687Z,28.29
2023-01-13T11:58:20.685Z,27.84
2023-01-13T11:59:20.670Z,27.68
2023-01-13T12:00:20.682Z,28.94
2023-01-13T12:01:23.279Z,28.77
2023-01-13T12:02:20.701Z,29.48
2023-01-13T12:03:20.731Z,29.83
2023-01-13T12:05:20.623Z,30.39
2023-01-13T12:06:20.634Z,30.78
2023-01-13T12:07:23.021Z,30.98
2023-01-13T12:08:20.596Z,31.10
2023-01-13T12:09:20.605Z,31.21
2023-01-13T12:10:20.564Z,31.21
2023-01-13T12:11:20.560Z,31.33
2023-01-13T12:12:20.559Z,31.26
2023-01-13T12:13:20.573Z,31.34
2023-01-13T12:14:20.595Z,31.56
2023-01-13T12:16:20.592Z,31.66
2023-01-13T12:17:20.495Z,31.66
2023-01-13T12:18:20.499Z,31.73
2023-01-13T12:19:20.600Z,31.84
2023-01-13T12:20:20.488Z,31.96
2023-01-13T12:21:20.472Z,32.00
2023-01-13T12:22:20.482Z,32.12
2023-01-13T12:23:20.479Z,32.13
2023-01-13T12:24:20.625Z,32.17
2023-01-13T12:25:20.626Z,32.24
2023-01-13T12:26:20.422Z,32.33
2023-01-13T12:27:20.418Z,32.33
2023-01-13T12:28:20.476Z,32.37
2023-01-13T12:29:20.414Z,32.35
2023-01-13T12:30:20.382Z,32.37
2023-01-13T12:31:20.439Z,32.53
2023-01-13T12:32:20.359Z,32.67
2023-01-13T12:33:20.352Z,32.75
2023-01-13T12:34:20.612Z,32.82
2023-01-13T12:35:20.364Z,32.93
2023-01-13T12:36:20.330Z,32.98
2023-01-13T12:37:20.325Z,33.14
2023-01-13T12:38:20.393Z,33.19
2023-01-13T12:39:20.294Z,33.25
2023-01-13T12:40:20.293Z,33.28
2023-01-13T12:41:20.288Z,33.22
2023-01-13T12:42:20.276Z,33.25
2023-01-13T12:43:20.266Z,33.36
2023-01-13T12:44:20.260Z,33.47
2023-01-13T12:45:20.244Z,33.57
2023-01-13T12:46:20.236Z,33.64
2023-01-13T12:47:20.226Z,33.62
2023-01-13T12:48:20.217Z,33.59
2023-01-13T12:49:20.227Z,33.61
2023-01-13T12:50:20.207Z,33.78
2023-01-13T12:51:20.198Z,33.81
2023-01-13T12:52:20.181Z,33.84
2023-01-13T12:53:20.188Z,33.81
2023-01-13T12:55:20.167Z,34.08
2023-01-13T12:56:20.153Z,34.04
2023-01-13T12:57:20.141Z,32.92
2023-01-13T12:58:20.135Z,31.91
2023-01-13T12:59:20.121Z,30.80
2023-01-13T13:00:20.120Z,30.77
2023-01-13T13:01:20.185Z,29.79
2023-01-13T13:02:20.298Z,28.65
2023-01-13T13:03:20.091Z,28.88
2023-01-13T13:04:20.103Z,28.37
2023-01-13T13:05:20.116Z,28.71
2023-01-13T13:06:20.114Z,28.88
2023-01-13T13:07:20.112Z,28.87
2023-01-13T13:08:20.044Z,29.02
2023-01-13T13:09:20.062Z,29.10
2023-01-13T13:10:20.054Z,29.12
2023-01-13T13:11:20.119Z,29.10
2023-01-13T13:12:20.019Z,29.01
2023-01-13T13:13:20.021Z,29.36
2023-01-13T13:14:19.994Z,29.65
2023-01-13T13:15:20.043Z,30.06
2023-01-13T13:16:20.050Z,30.29
2023-01-13T13:17:19.998Z,30.50
2023-01-13T13:18:19.957Z,30.72
2023-01-13T13:19:19.955Z,30.93
2023-01-13T13:20:19.945Z,31.02
2023-01-13T13:21:19.924Z,31.18
2023-01-13T13:22:19.920Z,31.27
2023-01-13T13:23:20.126Z,31.28
2023-01-13T13:24:20.125Z,31.32
2023-01-13T13:25:19.893Z,31.52
2023-01-13T13:26:19.923Z,31.59
2023-01-13T13:27:19.874Z,31.66
2023-01-13T13:28:19.865Z,31.73
2023-01-13T13:29:20.146Z,31.90
2023-01-13T13:30:19.856Z,32.07
2023-01-13T13:31:19.897Z,32.35
2023-01-13T13:32:19.831Z,32.41
2023-01-13T13:33:19.820Z,35.39
2023-01-13T13:35:19.799Z,32.24
2023-01-13T13:36:19.787Z,32.14
2023-01-13T13:37:19.781Z,32.09
2023-01-13T13:38:19.773Z,31.96
2023-01-13T13:39:19.770Z,32.02
2023-01-13T13:40:19.755Z,31.92
2023-01-13T13:41:19.753Z,32.08
2023-01-13T13:51:19.670Z,33.18
2023-01-13T13:55:19.692Z,33.49
2023-01-13T13:58:19.668Z,33.67
2023-01-13T15:04:18.975Z,36.36
2023-01-13T19:10:16.874Z,33.65
2023-01-13T19:11:16.869Z,33.63
2023-01-13T19:12:16.863Z,33.68
2023-01-13T19:13:16.856Z,33.65
2023-01-13T19:14:16.851Z,33.53
2023-01-13T19:15:16.832Z,33.64
2023-01-13T19:16:16.824Z,33.65
2023-01-13T19:17:16.823Z,33.71
2023-01-13T19:18:16.832Z,33.97
2023-01-13T19:19:16.818Z,33.89
2023-01-13T19:20:16.803Z,33.88
2023-01-13T19:21:16.782Z,33.91
2023-01-13T19:22:16.778Z,33.95
2023-01-13T19:23:16.765Z,34.02
2023-01-13T19:24:16.760Z,34.05
2023-01-13T19:25:16.757Z,34.08
2023-01-13T19:26:16.744Z,34.09
2023-01-13T19:27:16.737Z,34.12
2023-01-13T19:28:16.735Z,34.14
2023-01-13T19:29:16.712Z,34.14
2023-01-13T19:30:16.705Z,34.16
2023-01-13T19:31:16.734Z,34.19
2023-01-13T19:32:16.690Z,34.21
2023-01-13T19:33:16.684Z,34.30
2023-01-13T19:34:16.762Z,34.33
2023-01-13T19:35:16.671Z,34.36
2023-01-13T19:36:16.652Z,34.37
2023-01-13T19:37:16.643Z,34.38
2023-01-13T19:38:16.644Z,34.37
2023-01-13T19:39:16.628Z,34.40
2023-01-13T19:40:16.647Z,34.43
2023-01-13T19:41:16.616Z,34.44
2023-01-13T19:42:16.602Z,34.47
2023-01-13T19:43:16.597Z,34.48
2023-01-13T19:44:16.583Z,34.54
2023-01-13T19:45:16.583Z,34.61
2023-01-13T19:46:16.598Z,34.61
2023-01-13T19:47:16.560Z,34.65
2023-01-13T19:48:16.571Z,34.65
2023-01-13T19:49:16.544Z,34.77
2023-01-13T19:50:16.663Z,34.73
2023-01-13T19:51:16.533Z,34.85
2023-01-13T19:52:16.523Z,34.90
2023-01-13T19:53:16.512Z,34.80
2023-01-13T19:54:16.502Z,34.62
2023-01-13T19:55:16.493Z,34.67
2023-01-13T19:56:16.488Z,34.73
2023-01-13T19:57:16.484Z,34.69
2023-01-13T19:58:16.463Z,34.57
2023-01-13T19:59:16.455Z,34.63
2023-01-13T20:00:16.445Z,34.57
2023-01-13T20:01:16.546Z,34.45
2023-01-13T20:02:16.563Z,34.38
2023-01-13T20:03:16.425Z,34.28
2023-01-13T20:04:16.420Z,34.20
2023-01-13T20:05:16.409Z,34.22
2023-01-13T20:06:16.427Z,34.24
2023-01-13T20:07:16.402Z,34.22
2023-01-13T20:08:16.406Z,34.12
2023-01-13T20:09:16.381Z,34.26
2023-01-13T20:10:16.363Z,34.24
2023-01-13T20:11:16.356Z,34.18
2023-01-13T20:12:16.353Z,34.15
2023-01-13T20:13:16.345Z,34.24
2023-01-13T20:14:16.341Z,34.12
2023-01-13T20:15:16.415Z,34.19
2023-01-13T20:16:16.375Z,34.23
2023-01-13T20:17:16.313Z,34.19
2023-01-13T20:18:16.302Z,34.14
2023-01-13T20:19:16.289Z,34.11
2023-01-13T20:20:16.287Z,34.09
2023-01-13T20:21:16.275Z,34.12
2023-01-13T20:22:16.295Z,34.12
2023-01-13T20:23:16.254Z,34.12
2023-01-13T20:24:16.243Z,34.00
2023-01-13T20:25:16.307Z,34.04
2023-01-13T20:26:16.227Z,34.01
2023-01-13T20:27:16.222Z,33.99
2023-01-13T20:28:16.209Z,33.91
2023-01-13T20:29:16.206Z,33.83
2023-01-13T20:30:16.189Z,33.97
2023-01-13T20:31:16.224Z,33.95
2023-01-13T20:32:16.189Z,33.94
2023-01-13T20:33:16.168Z,33.92
2023-01-13T20:34:16.171Z,33.94
2023-01-13T20:35:16.156Z,33.91
2023-01-13T20:36:16.149Z,33.85
2023-01-13T20:37:16.130Z,33.84
2023-01-13T20:38:16.152Z,33.71
2023-01-13T20:39:16.122Z,33.63
2023-01-13T20:40:16.106Z,33.60
2023-01-13T20:41:16.103Z,33.68
2023-01-13T20:42:16.089Z,33.75
2023-01-13T20:43:17.662Z,33.60
2023-01-13T21:59:15.607Z,32.78
2023-01-13T22:00:15.607Z,32.79
2023-01-13T22:01:15.686Z,32.78
2023-01-13T22:02:23.770Z,32.75
